sensor_id;sensor_type;location;lat;lon;timestamp;temperature;humidity
41080;DHT22;26826;50.718;7.114;2023-04-01T00:06:03;11.60;99.90
41080;DHT22;26826;50.718;7.114;2023-04-01T00:16:04;11.50;99.90
41080;DHT22;26826;50.718;7.114;2023-04-01T00:26:04;11.50;99.90
41080;DHT22;26826;50.718;7.114;2023-04-01T00:36:07;11.40;99.90
41080;DHT22;26826;50.718;7.114;2023-04-01T00:46:08;11.40;99.90
41080;DHT22;26826;50.718;7.114;2023-04-01T00:56:15;11.30;99.90
41080;DHT22;26826;50.718;7.114;2023-04-01T01:16:45;11.30;99.90
41080;DHT22;26826;50.718;7.114;2023-04-01T01:27:09;11.30;99.90
41080;DHT22;26826;50.718;7.114;2023-04-01T01:37:15;11.30;99.90
41080;DHT22;26826;50.718;7.114;2023-04-01T01:47:18;11.20;99.90
41080;DHT22;26826;50.718;7.114;2023-04-01T01:57:25;11.10;99.90
41080;DHT22;26826;50.718;7.114;2023-04-01T02:07:30;11.10;99.90
41080;DHT22;26826;50.718;7.114;2023-04-01T02:17:33;11.20;99.90
41080;DHT22;26826;50.718;7.114;2023-04-01T02:27:34;11.20;99.90
41080;DHT22;26826;50.718;7.114;2023-04-01T02:37:36;11.20;99.90
41080;DHT22;26826;50.718;7.114;2023-04-01T02:47:37;11.00;99.90
41080;DHT22;26826;50.718;7.114;2023-04-01T02:57:37;10.90;99.90
41080;DHT22;26826;50.718;7.114;2023-04-01T03:07:38;10.80;99.90
41080;DHT22;26826;50.718;7.114;2023-04-01T03:17:39;10.50;99.90
41080;DHT22;26826;50.718;7.114;2023-04-01T03:27:40;10.30;99.90
41080;DHT22;26826;50.718;7.114;2023-04-01T03:37:40;10.00;99.90
41080;DHT22;26826;50.718;7.114;2023-04-01T03:47:41;10.00;99.90
41080;DHT22;26826;50.718;7.114;2023-04-01T03:57:41;10.10;99.90
41080;DHT22;26826;50.718;7.114;2023-04-01T04:07:42;10.30;99.90
41080;DHT22;26826;50.718;7.114;2023-04-01T04:17:44;10.40;99.90
41080;DHT22;26826;50.718;7.114;2023-04-01T04:27:45;10.60;99.90
41080;DHT22;26826;50.718;7.114;2023-04-01T04:37:45;10.60;99.90
41080;DHT22;26826;50.718;7.114;2023-04-01T04:47:46;10.60;99.90
41080;DHT22;26826;50.718;7.114;2023-04-01T04:57:46;10.60;99.90
41080;DHT22;26826;50.718;7.114;2023-04-01T05:07:47;10.50;99.90
41080;DHT22;26826;50.718;7.114;2023-04-01T05:17:47;10.20;99.90
41080;DHT22;26826;50.718;7.114;2023-04-01T05:27:48;10.00;99.90
41080;DHT22;26826;50.718;7.114;2023-04-01T05:37:48;10.00;99.90
41080;DHT22;26826;50.718;7.114;2023-04-01T05:47:49;9.90;99.90
41080;DHT22;26826;50.718;7.114;2023-04-01T05:57:50;9.90;99.90
41080;DHT22;26826;50.718;7.114;2023-04-01T06:07:55;9.80;99.90
41080;DHT22;26826;50.718;7.114;2023-04-01T06:18:50;10.00;99.90
41080;DHT22;26826;50.718;7.114;2023-04-01T06:39:21;10.10;99.90
41080;DHT22;26826;50.718;7.114;2023-04-01T07:00:00;10.10;99.90
41080;DHT22;26826;50.718;7.114;2023-04-01T07:10:09;10.20;99.90
41080;DHT22;26826;50.718;7.114;2023-04-01T07:20:20;10.10;99.90
41080;DHT22;26826;50.718;7.114;2023-04-01T07:30:23;10.40;99.90
41080;DHT22;26826;50.718;7.114;2023-04-01T07:40:39;10.40;99.90
41080;DHT22;26826;50.718;7.114;2023-04-01T08:01:58;10.70;99.90
41080;DHT22;26826;50.718;7.114;2023-04-01T08:22:48;10.70;99.90
41080;DHT22;26826;50.718;7.114;2023-04-01T08:33:05;10.80;99.90
41080;DHT22;26826;50.718;7.114;2023-04-01T08:43:22;10.90;99.90
41080;DHT22;26826;50.718;7.114;2023-04-01T08:53:48;10.90;99.90
41080;DHT22;26826;50.718;7.114;2023-04-01T09:35:45;10.70;99.90
41080;DHT22;26826;50.718;7.114;2023-04-01T10:28:03;11.50;99.90
41080;DHT22;26826;50.718;7.114;2023-04-01T10:59:28;12.00;99.90
41080;DHT22;26826;50.718;7.114;2023-04-01T11:30:20;11.70;99.90
41080;DHT22;26826;50.718;7.114;2023-04-01T12:01:29;11.40;99.90
41080;DHT22;26826;50.718;7.114;2023-04-01T12:43:14;11.90;99.90
41080;DHT22;26826;50.718;7.114;2023-04-01T12:53:55;11.90;99.90
41080;DHT22;26826;50.718;7.114;2023-04-01T13:04:19;11.80;99.90
41080;DHT22;26826;50.718;7.114;2023-04-01T13:14:50;11.70;99.90
41080;DHT22;26826;50.718;7.114;2023-04-01T13:25:10;11.60;99.90
41080;DHT22;26826;50.718;7.114;2023-04-01T14:06:44;12.30;99.90
41080;DHT22;26826;50.718;7.114;2023-04-01T14:27:33;12.80;99.90
41080;DHT22;26826;50.718;7.114;2023-04-01T14:58:10;12.90;99.90
41080;DHT22;26826;50.718;7.114;2023-04-01T15:08:26;12.50;99.90
41080;DHT22;26826;50.718;7.114;2023-04-01T15:18:50;12.40;99.90
41080;DHT22;26826;50.718;7.114;2023-04-01T15:29:06;12.50;99.90
41080;DHT22;26826;50.718;7.114;2023-04-01T15:39:14;12.30;99.90
41080;DHT22;26826;50.718;7.114;2023-04-01T15:49:44;12.30;99.90
41080;DHT22;26826;50.718;7.114;2023-04-01T16:20:53;11.70;99.90
41080;DHT22;26826;50.718;7.114;2023-04-01T16:41:35;11.40;99.90
41080;DHT22;26826;50.718;7.114;2023-04-01T17:02:02;11.20;99.90
41080;DHT22;26826;50.718;7.114;2023-04-01T17:33:10;10.90;99.90
41080;DHT22;26826;50.718;7.114;2023-04-01T17:53:50;10.60;99.90
41080;DHT22;26826;50.718;7.114;2023-04-01T18:04:11;10.50;99.90
41080;DHT22;26826;50.718;7.114;2023-04-01T18:35:49;10.30;99.90
41080;DHT22;26826;50.718;7.114;2023-04-01T18:45:57;10.20;99.90
41080;DHT22;26826;50.718;7.114;2023-04-01T19:06:35;10.20;99.90
41080;DHT22;26826;50.718;7.114;2023-04-01T19:16:43;10.20;99.90
41080;DHT22;26826;50.718;7.114;2023-04-01T19:36:59;10.00;99.90
41080;DHT22;26826;50.718;7.114;2023-04-01T19:57:38;10.00;99.90
41080;DHT22;26826;50.718;7.114;2023-04-01T20:07:45;9.90;99.90
41080;DHT22;26826;50.718;7.114;2023-04-01T20:17:48;9.90;99.90
41080;DHT22;26826;50.718;7.114;2023-04-01T21:09:44;9.50;99.90
41080;DHT22;26826;50.718;7.114;2023-04-01T21:19:55;9.50;99.90
41080;DHT22;26826;50.718;7.114;2023-04-01T21:40:49;9.50;99.90
41080;DHT22;26826;50.718;7.114;2023-04-01T21:51:30;9.40;99.90
41080;DHT22;26826;50.718;7.114;2023-04-01T22:01:58;9.40;99.90
41080;DHT22;26826;50.718;7.114;2023-04-01T22:12:23;9.30;99.90
41080;DHT22;26826;50.718;7.114;2023-04-01T22:33:07;9.30;99.90
41080;DHT22;26826;50.718;7.114;2023-04-01T22:43:15;9.30;99.90
41080;DHT22;26826;50.718;7.114;2023-04-01T22:53:25;9.40;99.90
41080;DHT22;26826;50.718;7.114;2023-04-01T23:13:41;9.30;99.90
41080;DHT22;26826;50.718;7.114;2023-04-01T23:24:36;9.30;99.90
41080;DHT22;26826;50.718;7.114;2023-04-01T23:44:13;9.20;99.90
41080;DHT22;26826;50.718;7.114;2023-04-01T23:54:19;9.20;99.90
